sensor_id;sensor_type;location;lat;lon;timestamp;pressure;altitude;pressure_sealevel;temperature;humidity
27712;BME280;2377;51.734;8.950;2022-08-03T00:00:57;97993.31;;;20.56;66.48
27712;BME280;2377;51.734;8.950;2022-08-03T00:03:25;97992.78;;;20.54;66.59
27712;BME280;2377;51.734;8.950;2022-08-03T00:05:52;97996.72;;;20.52;66.48
27712;BME280;2377;51.734;8.950;2022-08-03T00:08:20;97995.94;;;20.51;66.61
27712;BME280;2377;51.734;8.950;2022-08-03T00:10:47;97992.53;;;20.51;66.92
27712;BME280;2377;51.734;8.950;2022-08-03T00:13:14;97994.94;;;20.47;66.91
27712;BME280;2377;51.734;8.950;2022-08-03T00:15:42;97986.88;;;20.43;66.78
27712;BME280;2377;51.734;8.950;2022-08-03T00:18:09;97991.59;;;20.41;67.06
27712;BME280;2377;51.734;8.950;2022-08-03T00:20:38;97989.28;;;20.40;67.36
27712;BME280;2377;51.734;8.950;2022-08-03T00:23:05;97992.13;;;20.38;67.43
27712;BME280;2377;51.734;8.950;2022-08-03T00:25:33;97981.53;;;20.35;67.70
27712;BME280;2377;51.734;8.950;2022-08-03T00:28:01;97976.84;;;20.32;67.95
27712;BME280;2377;51.734;8.950;2022-08-03T00:30:28;97982.59;;;20.28;68.16
27712;BME280;2377;51.734;8.950;2022-08-03T00:32:56;97983.16;;;20.25;68.39
27712;BME280;2377;51.734;8.950;2022-08-03T00:35:23;97985.22;;;20.23;68.23
27712;BME280;2377;51.734;8.950;2022-08-03T00:37:52;97985.22;;;20.23;68.36
27712;BME280;2377;51.734;8.950;2022-08-03T00:40:19;97978.75;;;20.21;68.05
27712;BME280;2377;51.734;8.950;2022-08-03T00:42:50;97988.63;;;20.19;68.06
27712;BME280;2377;51.734;8.950;2022-08-03T00:45:19;97979.84;;;20.15;67.89
27712;BME280;2377;51.734;8.950;2022-08-03T00:47:47;97972.59;;;20.12;67.85
27712;BME280;2377;51.734;8.950;2022-08-03T00:50:16;97972.34;;;20.08;68.02
27712;BME280;2377;51.734;8.950;2022-08-03T00:52:44;97973.66;;;20.05;68.04
27712;BME280;2377;51.734;8.950;2022-08-03T00:55:13;97968.50;;;20.00;67.94
27712;BME280;2377;51.734;8.950;2022-08-03T00:57:42;97973.19;;;19.98;67.94
27712;BME280;2377;51.734;8.950;2022-08-03T01:00:12;97972.97;;;19.95;67.93
27712;BME280;2377;51.734;8.950;2022-08-03T01:02:40;97974.28;;;19.92;68.21
27712;BME280;2377;51.734;8.950;2022-08-03T01:05:08;97976.38;;;19.90;68.14
27712;BME280;2377;51.734;8.950;2022-08-03T01:07:58;97968.06;;;19.88;68.50
27712;BME280;2377;51.734;8.950;2022-08-03T01:10:36;97968.63;;;19.85;68.61
27712;BME280;2377;51.734;8.950;2022-08-03T01:13:21;97957.97;;;19.81;68.80
27712;BME280;2377;51.734;8.950;2022-08-03T01:15:59;97959.81;;;19.81;68.76
27712;BME280;2377;51.734;8.950;2022-08-03T01:18:35;97958.53;;;19.78;68.73
27712;BME280;2377;51.734;8.950;2022-08-03T01:21:11;97956.75;;;19.74;68.90
27712;BME280;2377;51.734;8.950;2022-08-03T01:24:02;97957.25;;;19.71;69.20
27712;BME280;2377;51.734;8.950;2022-08-03T01:27:02;97963.75;;;19.63;69.25
27712;BME280;2377;51.734;8.950;2022-08-03T01:30:01;97960.13;;;19.59;70.00
27712;BME280;2377;51.734;8.950;2022-08-03T01:32:38;97957.28;;;19.60;69.81
27712;BME280;2377;51.734;8.950;2022-08-03T01:35:12;97959.13;;;19.60;70.00
27712;BME280;2377;51.734;8.950;2022-08-03T01:37:47;97955.75;;;19.59;69.80
27712;BME280;2377;51.734;8.950;2022-08-03T01:40:19;97951.59;;;19.58;69.74
27712;BME280;2377;51.734;8.950;2022-08-03T01:42:49;97960.97;;;19.54;70.13
27712;BME280;2377;51.734;8.950;2022-08-03T01:45:21;97957.06;;;19.52;70.09
27712;BME280;2377;51.734;8.950;2022-08-03T01:47:50;97953.69;;;19.51;69.86
27712;BME280;2377;51.734;8.950;2022-08-03T01:50:22;97955.78;;;19.49;69.83
27712;BME280;2377;51.734;8.950;2022-08-03T01:52:52;97957.84;;;19.47;69.65
27712;BME280;2377;51.734;8.950;2022-08-03T01:55:22;97954.78;;;19.45;69.32
27712;BME280;2377;51.734;8.950;2022-08-03T01:57:54;97957.63;;;19.43;69.43
27712;BME280;2377;51.734;8.950;2022-08-03T02:00:24;97954.78;;;19.40;69.70
27712;BME280;2377;51.734;8.950;2022-08-03T02:02:54;97947.53;;;19.37;70.14
27712;BME280;2377;51.734;8.950;2022-08-03T02:05:23;97958.97;;;19.36;70.99
27712;BME280;2377;51.734;8.950;2022-08-03T02:07:53;97950.94;;;19.32;71.21
27712;BME280;2377;51.734;8.950;2022-08-03T02:10:22;97949.91;;;19.28;70.93
27712;BME280;2377;51.734;8.950;2022-08-03T02:12:51;97953.03;;;19.25;71.05
27712;BME280;2377;51.734;8.950;2022-08-03T02:15:22;97960.56;;;19.21;71.47
27712;BME280;2377;51.734;8.950;2022-08-03T02:17:50;97948.41;;;19.17;71.33
27712;BME280;2377;51.734;8.950;2022-08-03T02:20:19;97952.78;;;19.16;71.13
27712;BME280;2377;51.734;8.950;2022-08-03T02:22:47;97950.19;;;19.16;70.83
27712;BME280;2377;51.734;8.950;2022-08-03T02:25:15;97950.19;;;19.16;70.80
27712;BME280;2377;51.734;8.950;2022-08-03T02:27:50;97951.25;;;19.15;70.99
27712;BME280;2377;51.734;8.950;2022-08-03T02:30:19;97945.00;;;19.16;70.84
27712;BME280;2377;51.734;8.950;2022-08-03T02:32:54;97947.59;;;19.16;70.76
27712;BME280;2377;51.734;8.950;2022-08-03T02:35:25;97940.13;;;19.15;70.93
27712;BME280;2377;51.734;8.950;2022-08-03T02:38:01;97937.78;;;19.13;71.07
27712;BME280;2377;51.734;8.950;2022-08-03T02:40:31;97939.84;;;19.11;71.40
27712;BME280;2377;51.734;8.950;2022-08-03T02:43:03;97938.31;;;19.10;71.52
27712;BME280;2377;51.734;8.950;2022-08-03T02:45:35;97940.63;;;19.12;71.69
27712;BME280;2377;51.734;8.950;2022-08-03T02:48:08;97938.31;;;19.10;71.48
27712;BME280;2377;51.734;8.950;2022-08-03T02:50:37;97942.44;;;19.11;71.51
27712;BME280;2377;51.734;8.950;2022-08-03T02:53:06;97936.50;;;19.11;71.49
27712;BME280;2377;51.734;8.950;2022-08-03T02:55:36;97933.13;;;19.10;71.34
27712;BME280;2377;51.734;8.950;2022-08-03T02:58:06;97936.22;;;19.07;71.36
27712;BME280;2377;51.734;8.950;2022-08-03T03:00:35;97931.06;;;19.02;71.76
27712;BME280;2377;51.734;8.950;2022-08-03T03:03:05;97932.13;;;19.01;71.75
27712;BME280;2377;51.734;8.950;2022-08-03T03:05:34;97934.97;;;18.99;71.62
27712;BME280;2377;51.734;8.950;2022-08-03T03:08:03;97937.84;;;18.98;71.55
27712;BME280;2377;51.734;8.950;2022-08-03T03:10:31;97939.91;;;18.96;71.63
27712;BME280;2377;51.734;8.950;2022-08-03T03:12:59;97932.41;;;18.94;71.70
27712;BME280;2377;51.734;8.950;2022-08-03T03:15:29;97936.28;;;18.92;71.49
27712;BME280;2377;51.734;8.950;2022-08-03T03:18:00;97931.38;;;18.90;71.55
27712;BME280;2377;51.734;8.950;2022-08-03T03:20:29;97930.59;;;18.90;71.68
27712;BME280;2377;51.734;8.950;2022-08-03T03:23:11;97933.72;;;18.87;71.57
27712;BME280;2377;51.734;8.950;2022-08-03T03:25:39;97926.97;;;18.86;71.87
27712;BME280;2377;51.734;8.950;2022-08-03T03:28:09;97936.03;;;18.83;72.18
27712;BME280;2377;51.734;8.950;2022-08-03T03:30:37;97941.50;;;18.82;71.97
27712;BME280;2377;51.734;8.950;2022-08-03T03:33:04;97939.16;;;18.80;72.15
27712;BME280;2377;51.734;8.950;2022-08-03T03:35:34;97935.28;;;18.77;72.42
27712;BME280;2377;51.734;8.950;2022-08-03T03:38:01;97932.16;;;18.75;72.52
27712;BME280;2377;51.734;8.950;2022-08-03T03:40:29;97939.41;;;18.73;72.78
27712;BME280;2377;51.734;8.950;2022-08-03T03:42:56;97929.03;;;18.73;72.46
27712;BME280;2377;51.734;8.950;2022-08-03T03:45:23;97929.56;;;18.70;72.74
27712;BME280;2377;51.734;8.950;2022-08-03T03:47:51;97931.41;;;18.70;72.61
27712;BME280;2377;51.734;8.950;2022-08-03T03:50:19;97928.00;;;18.69;72.59
27712;BME280;2377;51.734;8.950;2022-08-03T03:52:49;97930.88;;;18.68;72.74
27712;BME280;2377;51.734;8.950;2022-08-03T03:55:16;97932.69;;;18.67;72.82
27712;BME280;2377;51.734;8.950;2022-08-03T03:57:44;97927.00;;;18.65;73.00
27712;BME280;2377;51.734;8.950;2022-08-03T04:00:13;97934.25;;;18.63;72.96
27712;BME280;2377;51.734;8.950;2022-08-03T04:02:41;97932.44;;;18.64;73.20
27712;BME280;2377;51.734;8.950;2022-08-03T04:05:08;97934.25;;;18.63;72.92
27712;BME280;2377;51.734;8.950;2022-08-03T04:07:58;97939.69;;;18.62;73.29
27712;BME280;2377;51.734;8.950;2022-08-03T04:11:06;97939.44;;;18.58;73.37
27712;BME280;2377;51.734;8.950;2022-08-03T04:13:38;97933.47;;;18.57;73.08
27712;BME280;2377;51.734;8.950;2022-08-03T04:16:11;97947.97;;;18.58;73.46
27712;BME280;2377;51.734;8.950;2022-08-03T04:18:41;97943.56;;;18.59;73.46
27712;BME280;2377;51.734;8.950;2022-08-03T04:21:15;97934.75;;;18.60;73.38
27712;BME280;2377;51.734;8.950;2022-08-03T04:23:49;97937.09;;;18.62;73.66
27712;BME280;2377;51.734;8.950;2022-08-03T04:26:21;97942.03;;;18.63;73.79
27712;BME280;2377;51.734;8.950;2022-08-03T04:28:51;97938.38;;;18.64;73.76
27712;BME280;2377;51.734;8.950;2022-08-03T04:31:21;97942.53;;;18.65;74.61
27712;BME280;2377;51.734;8.950;2022-08-03T04:33:52;97944.84;;;18.67;74.36
27712;BME280;2377;51.734;8.950;2022-08-03T04:36:26;97953.41;;;18.67;74.71
27712;BME280;2377;51.734;8.950;2022-08-03T04:39:03;97945.66;;;18.67;74.52
27712;BME280;2377;51.734;8.950;2022-08-03T04:41:34;97948.72;;;18.69;75.00
27712;BME280;2377;51.734;8.950;2022-08-03T04:44:03;97956.50;;;18.69;75.10
27712;BME280;2377;51.734;8.950;2022-08-03T04:46:35;97956.50;;;18.69;75.03
27712;BME280;2377;51.734;8.950;2022-08-03T04:49:05;97957.00;;;18.71;75.51
27712;BME280;2377;51.734;8.950;2022-08-03T04:51:33;97958.31;;;18.74;75.33
27712;BME280;2377;51.734;8.950;2022-08-03T04:54:04;97958.81;;;18.76;75.28
27712;BME280;2377;51.734;8.950;2022-08-03T04:56:32;97956.00;;;18.77;75.63
27712;BME280;2377;51.734;8.950;2022-08-03T04:59:00;97954.72;;;18.80;75.89
27712;BME280;2377;51.734;8.950;2022-08-03T05:01:27;97959.63;;;18.82;76.07
27712;BME280;2377;51.734;8.950;2022-08-03T05:03:54;97958.06;;;18.86;76.33
27712;BME280;2377;51.734;8.950;2022-08-03T05:06:21;97959.09;;;18.90;76.10
27712;BME280;2377;51.734;8.950;2022-08-03T05:08:48;97962.97;;;18.92;76.61
27712;BME280;2377;51.734;8.950;2022-08-03T05:11:17;97964.00;;;18.96;76.88
27712;BME280;2377;51.734;8.950;2022-08-03T05:13:44;97965.81;;;19.01;76.84
27712;BME280;2377;51.734;8.950;2022-08-03T05:16:12;97962.94;;;19.08;76.79
27712;BME280;2377;51.734;8.950;2022-08-03T05:18:39;97962.16;;;19.12;76.82
27712;BME280;2377;51.734;8.950;2022-08-03T05:21:06;97969.91;;;19.17;76.93
27712;BME280;2377;51.734;8.950;2022-08-03T05:23:34;97967.56;;;19.21;76.95
27712;BME280;2377;51.734;8.950;2022-08-03T05:26:02;97963.66;;;19.23;77.54
27712;BME280;2377;51.734;8.950;2022-08-03T05:28:31;97958.47;;;19.29;77.28
27712;BME280;2377;51.734;8.950;2022-08-03T05:30:58;97967.75;;;19.35;76.86
27712;BME280;2377;51.734;8.950;2022-08-03T05:33:25;97968.78;;;19.39;76.92
27712;BME280;2377;51.734;8.950;2022-08-03T05:35:52;97968.78;;;19.44;76.98
27712;BME280;2377;51.734;8.950;2022-08-03T05:38:19;97967.97;;;19.49;77.39
27712;BME280;2377;51.734;8.950;2022-08-03T05:40:46;97966.41;;;19.53;77.61
27712;BME280;2377;51.734;8.950;2022-08-03T05:43:13;97960.13;;;19.59;77.89
27712;BME280;2377;51.734;8.950;2022-08-03T05:45:42;97955.47;;;19.66;78.45
27712;BME280;2377;51.734;8.950;2022-08-03T05:48:10;97963.47;;;19.75;78.63
27712;BME280;2377;51.734;8.950;2022-08-03T05:50:37;97955.13;;;19.83;78.39
27712;BME280;2377;51.734;8.950;2022-08-03T05:53:04;97960.25;;;19.93;78.28
27712;BME280;2377;51.734;8.950;2022-08-03T05:55:31;97959.69;;;20.01;78.17
27712;BME280;2377;51.734;8.950;2022-08-03T05:57:58;97957.56;;;20.09;78.27
27712;BME280;2377;51.734;8.950;2022-08-03T06:00:27;97961.13;;;20.18;77.51
27712;BME280;2377;51.734;8.950;2022-08-03T06:02:55;97954.84;;;20.24;76.95
27712;BME280;2377;51.734;8.950;2022-08-03T06:05:22;97961.56;;;20.30;76.63
27712;BME280;2377;51.734;8.950;2022-08-03T06:07:51;97953.69;;;20.40;76.56
27712;BME280;2377;51.734;8.950;2022-08-03T06:10:19;97968.41;;;20.50;75.81
27712;BME280;2377;51.734;8.950;2022-08-03T06:12:46;97957.72;;;20.57;76.03
27712;BME280;2377;51.734;8.950;2022-08-03T06:15:15;97959.25;;;20.63;76.59
27712;BME280;2377;51.734;8.950;2022-08-03T06:17:48;97962.81;;;20.67;76.40
27712;BME280;2377;51.734;8.950;2022-08-03T06:20:18;97968.47;;;20.74;76.41
27712;BME280;2377;51.734;8.950;2022-08-03T06:22:46;97966.06;;;20.83;76.14
27712;BME280;2377;51.734;8.950;2022-08-03T06:25:14;97963.13;;;20.89;75.63
27712;BME280;2377;51.734;8.950;2022-08-03T06:27:41;97965.16;;;20.98;75.71
27712;BME280;2377;51.734;8.950;2022-08-03T06:30:11;97971.25;;;21.07;76.36
27712;BME280;2377;51.734;8.950;2022-08-03T06:32:39;97974.81;;;21.16;76.51
27712;BME280;2377;51.734;8.950;2022-08-03T06:35:08;97973.91;;;21.26;76.56
27712;BME280;2377;51.734;8.950;2022-08-03T06:37:43;97975.91;;;21.34;76.44
27712;BME280;2377;51.734;8.950;2022-08-03T06:40:12;97976.88;;;21.43;76.85
27712;BME280;2377;51.734;8.950;2022-08-03T06:42:40;97983.22;;;21.56;77.16
27712;BME280;2377;51.734;8.950;2022-08-03T06:45:08;97985.41;;;21.68;77.11
27712;BME280;2377;51.734;8.950;2022-08-03T06:47:36;97983.19;;;21.80;77.72
27712;BME280;2377;51.734;8.950;2022-08-03T06:50:04;97983.03;;;21.90;76.70
27712;BME280;2377;51.734;8.950;2022-08-03T06:52:32;97988.84;;;22.01;76.09
27712;BME280;2377;51.734;8.950;2022-08-03T06:55:01;97983.53;;;22.11;75.69
27712;BME280;2377;51.734;8.950;2022-08-03T06:57:28;97988.31;;;22.23;75.37
27712;BME280;2377;51.734;8.950;2022-08-03T06:59:55;97983.16;;;22.37;74.71
27712;BME280;2377;51.734;8.950;2022-08-03T07:02:26;97983.22;;;22.51;74.51
27712;BME280;2377;51.734;8.950;2022-08-03T07:04:54;97982.34;;;22.69;73.49
27712;BME280;2377;51.734;8.950;2022-08-03T07:07:21;97991.19;;;22.87;72.61
27712;BME280;2377;51.734;8.950;2022-08-03T07:09:48;97991.91;;;23.07;71.72
27712;BME280;2377;51.734;8.950;2022-08-03T07:12:16;97993.38;;;23.27;71.57
27712;BME280;2377;51.734;8.950;2022-08-03T07:14:43;97991.88;;;23.48;69.27
27712;BME280;2377;51.734;8.950;2022-08-03T07:17:10;97993.28;;;23.68;68.82
27712;BME280;2377;51.734;8.950;2022-08-03T07:19:37;97997.25;;;23.93;67.94
27712;BME280;2377;51.734;8.950;2022-08-03T07:22:05;97999.56;;;24.17;67.62
27712;BME280;2377;51.734;8.950;2022-08-03T07:24:33;97992.22;;;24.42;66.45
27712;BME280;2377;51.734;8.950;2022-08-03T07:27:00;97993.47;;;24.67;65.75
27712;BME280;2377;51.734;8.950;2022-08-03T07:29:29;97999.13;;;24.92;65.24
27712;BME280;2377;51.734;8.950;2022-08-03T07:31:56;98001.34;;;25.16;64.74
27712;BME280;2377;51.734;8.950;2022-08-03T07:34:23;98000.22;;;25.39;63.57
27712;BME280;2377;51.734;8.950;2022-08-03T07:36:50;98002.13;;;25.65;63.22
27712;BME280;2377;51.734;8.950;2022-08-03T07:39:17;97997.06;;;25.86;62.13
27712;BME280;2377;51.734;8.950;2022-08-03T07:41:45;98001.38;;;26.08;60.85
27712;BME280;2377;51.734;8.950;2022-08-03T07:44:12;97996.78;;;26.22;58.62
27712;BME280;2377;51.734;8.950;2022-08-03T07:46:40;97998.25;;;26.41;58.32
27712;BME280;2377;51.734;8.950;2022-08-03T07:49:08;97999.19;;;26.53;57.93
27712;BME280;2377;51.734;8.950;2022-08-03T07:51:35;97993.31;;;26.65;58.61
27712;BME280;2377;51.734;8.950;2022-08-03T07:54:03;97995.41;;;26.81;57.98
27712;BME280;2377;51.734;8.950;2022-08-03T07:56:30;98001.38;;;26.98;58.21
27712;BME280;2377;51.734;8.950;2022-08-03T07:58:57;97998.84;;;27.19;56.36
27712;BME280;2377;51.734;8.950;2022-08-03T08:01:24;98000.59;;;27.36;54.83
27712;BME280;2377;51.734;8.950;2022-08-03T08:03:53;98003.75;;;27.51;53.89
27712;BME280;2377;51.734;8.950;2022-08-03T08:06:20;97996.28;;;27.61;52.07
27712;BME280;2377;51.734;8.950;2022-08-03T08:08:48;97995.75;;;27.68;52.56
27712;BME280;2377;51.734;8.950;2022-08-03T08:11:15;98001.84;;;27.81;52.43
27712;BME280;2377;51.734;8.950;2022-08-03T08:13:42;98006.34;;;28.01;52.78
27712;BME280;2377;51.734;8.950;2022-08-03T08:16:09;98002.81;;;28.18;52.24
27712;BME280;2377;51.734;8.950;2022-08-03T08:18:36;98006.22;;;28.31;51.17
27712;BME280;2377;51.734;8.950;2022-08-03T08:21:04;98005.50;;;28.43;50.13
27712;BME280;2377;51.734;8.950;2022-08-03T08:23:31;98007.09;;;28.56;49.10
27712;BME280;2377;51.734;8.950;2022-08-03T08:25:58;98002.63;;;28.69;49.36
27712;BME280;2377;51.734;8.950;2022-08-03T08:28:25;98009.88;;;28.84;49.63
27712;BME280;2377;51.734;8.950;2022-08-03T08:30:52;98008.38;;;28.96;48.87
27712;BME280;2377;51.734;8.950;2022-08-03T08:33:20;98005.72;;;28.96;46.53
27712;BME280;2377;51.734;8.950;2022-08-03T08:35:47;98004.31;;;29.11;48.21
27712;BME280;2377;51.734;8.950;2022-08-03T08:38:15;98012.34;;;29.26;46.21
27712;BME280;2377;51.734;8.950;2022-08-03T08:40:42;98001.34;;;29.37;47.59
27712;BME280;2377;51.734;8.950;2022-08-03T08:43:09;98002.44;;;29.48;45.32
27712;BME280;2377;51.734;8.950;2022-08-03T08:45:37;98006.25;;;29.50;44.92
27712;BME280;2377;51.734;8.950;2022-08-03T08:48:07;97999.00;;;29.60;46.46
27712;BME280;2377;51.734;8.950;2022-08-03T08:50:37;97995.59;;;29.71;46.30
27712;BME280;2377;51.734;8.950;2022-08-03T08:53:06;98000.16;;;29.87;44.77
27712;BME280;2377;51.734;8.950;2022-08-03T08:55:38;97997.91;;;30.01;45.63
27712;BME280;2377;51.734;8.950;2022-08-03T08:58:08;97996.75;;;30.14;45.29
27712;BME280;2377;51.734;8.950;2022-08-03T09:00:37;97995.94;;;30.26;44.65
27712;BME280;2377;51.734;8.950;2022-08-03T09:03:05;97991.00;;;30.25;44.13
27712;BME280;2377;51.734;8.950;2022-08-03T09:05:32;97999.78;;;30.29;43.82
27712;BME280;2377;51.734;8.950;2022-08-03T09:08:00;97990.19;;;30.37;44.28
27712;BME280;2377;51.734;8.950;2022-08-03T09:10:27;97997.94;;;30.45;43.16
27712;BME280;2377;51.734;8.950;2022-08-03T09:12:56;97992.91;;;30.40;41.94
27712;BME280;2377;51.734;8.950;2022-08-03T09:15:26;97994.47;;;30.41;43.92
27712;BME280;2377;51.734;8.950;2022-08-03T09:17:56;97984.84;;;30.49;44.58
27712;BME280;2377;51.734;8.950;2022-08-03T09:20:26;98005.13;;;30.61;44.64
27712;BME280;2377;51.734;8.950;2022-08-03T09:22:57;97998.81;;;30.65;43.50
27712;BME280;2377;51.734;8.950;2022-08-03T09:25:32;97997.88;;;30.73;42.74
27712;BME280;2377;51.734;8.950;2022-08-03T09:28:08;97997.81;;;30.86;43.66
27712;BME280;2377;51.734;8.950;2022-08-03T09:30:37;98005.56;;;30.94;41.96
27712;BME280;2377;51.734;8.950;2022-08-03T09:33:07;97993.63;;;31.01;42.03
27712;BME280;2377;51.734;8.950;2022-08-03T09:35:41;97996.09;;;31.09;41.85
27712;BME280;2377;51.734;8.950;2022-08-03T09:38:13;97998.03;;;31.12;42.56
27712;BME280;2377;51.734;8.950;2022-08-03T09:40:41;97998.03;;;31.12;42.28
27712;BME280;2377;51.734;8.950;2022-08-03T09:43:11;97996.31;;;31.20;41.85
27712;BME280;2377;51.734;8.950;2022-08-03T10:21:07;97988.63;;;31.66;41.20
27712;BME280;2377;51.734;8.950;2022-08-03T10:23:37;97983.78;;;31.68;41.28
27712;BME280;2377;51.734;8.950;2022-08-03T10:26:07;97979.09;;;31.81;40.13
27712;BME280;2377;51.734;8.950;2022-08-03T10:28:39;97972.91;;;31.73;40.15
27712;BME280;2377;51.734;8.950;2022-08-03T10:31:09;97968.81;;;31.76;41.14
27712;BME280;2377;51.734;8.950;2022-08-03T10:33:42;97980.41;;;31.91;41.03
27712;BME280;2377;51.734;8.950;2022-08-03T10:36:13;97970.47;;;32.04;40.43
27712;BME280;2377;51.734;8.950;2022-08-03T10:38:46;97969.31;;;32.01;39.21
27712;BME280;2377;51.734;8.950;2022-08-03T10:41:19;97973.50;;;31.86;40.41
27712;BME280;2377;51.734;8.950;2022-08-03T10:43:54;97964.53;;;31.91;39.82
27712;BME280;2377;51.734;8.950;2022-08-03T10:46:22;97970.19;;;31.89;40.34
27712;BME280;2377;51.734;8.950;2022-08-03T10:48:50;97971.44;;;31.95;40.66
27712;BME280;2377;51.734;8.950;2022-08-03T10:51:20;97976.81;;;31.99;40.16
27712;BME280;2377;51.734;8.950;2022-08-03T10:53:48;97969.44;;;32.08;39.77
27712;BME280;2377;51.734;8.950;2022-08-03T10:56:40;97968.00;;;32.14;39.15
27712;BME280;2377;51.734;8.950;2022-08-03T11:00:01;97968.78;;;32.15;38.65
27712;BME280;2377;51.734;8.950;2022-08-03T11:03:07;97963.00;;;32.09;39.10
27712;BME280;2377;51.734;8.950;2022-08-03T11:05:38;97964.91;;;32.09;38.99
27712;BME280;2377;51.734;8.950;2022-08-03T11:08:34;97961.91;;;32.10;38.81
27712;BME280;2377;51.734;8.950;2022-08-03T11:41:42;97955.41;;;32.27;37.63
27712;BME280;2377;51.734;8.950;2022-08-03T11:44:39;97950.88;;;32.28;38.54
27712;BME280;2377;51.734;8.950;2022-08-03T11:47:11;97948.34;;;32.35;37.68
27712;BME280;2377;51.734;8.950;2022-08-03T11:49:43;97951.69;;;32.32;38.06
27712;BME280;2377;51.734;8.950;2022-08-03T11:52:12;97946.41;;;32.32;37.99
27712;BME280;2377;51.734;8.950;2022-08-03T11:54:39;97942.63;;;32.33;37.31
27712;BME280;2377;51.734;8.950;2022-08-03T11:57:08;97946.41;;;32.32;38.15
27712;BME280;2377;51.734;8.950;2022-08-03T11:59:37;97947.28;;;32.39;38.00
27712;BME280;2377;51.734;8.950;2022-08-03T12:02:08;97955.41;;;32.50;37.49
27712;BME280;2377;51.734;8.950;2022-08-03T12:04:49;97952.47;;;32.55;37.52
27712;BME280;2377;51.734;8.950;2022-08-03T12:07:16;97954.50;;;32.66;37.40
27712;BME280;2377;51.734;8.950;2022-08-03T12:09:43;97942.56;;;32.75;37.32
27712;BME280;2377;51.734;8.950;2022-08-03T12:12:29;97939.56;;;32.77;37.51
27712;BME280;2377;51.734;8.950;2022-08-03T12:14:56;97946.34;;;32.74;38.32
27712;BME280;2377;51.734;8.950;2022-08-03T12:17:32;97949.84;;;32.82;38.53
27712;BME280;2377;51.734;8.950;2022-08-03T12:19:59;97944.19;;;32.83;37.98
27712;BME280;2377;51.734;8.950;2022-08-03T12:22:31;97938.13;;;32.83;37.04
27712;BME280;2377;51.734;8.950;2022-08-03T12:24:59;97945.78;;;32.88;36.59
27712;BME280;2377;51.734;8.950;2022-08-03T12:27:26;97939.75;;;32.91;36.94
27712;BME280;2377;51.734;8.950;2022-08-03T12:29:57;97934.88;;;32.93;36.51
27712;BME280;2377;51.734;8.950;2022-08-03T12:32:24;97926.94;;;32.93;36.79
27712;BME280;2377;51.734;8.950;2022-08-03T12:34:52;97935.19;;;32.88;36.67
27712;BME280;2377;51.734;8.950;2022-08-03T12:37:20;97938.81;;;32.76;37.05
27712;BME280;2377;51.734;8.950;2022-08-03T12:39:51;97937.31;;;32.79;38.34
27712;BME280;2377;51.734;8.950;2022-08-03T12:42:19;97941.28;;;32.92;37.88
27712;BME280;2377;51.734;8.950;2022-08-03T12:44:47;97945.88;;;32.95;38.11
27712;BME280;2377;51.734;8.950;2022-08-03T12:47:17;97939.13;;;33.01;37.98
27712;BME280;2377;51.734;8.950;2022-08-03T12:49:45;97940.69;;;33.02;36.29
27712;BME280;2377;51.734;8.950;2022-08-03T12:52:12;97936.97;;;33.07;36.69
27712;BME280;2377;51.734;8.950;2022-08-03T12:57:10;97933.59;;;33.10;37.43
27712;BME280;2377;51.734;8.950;2022-08-03T12:59:39;97930.31;;;33.20;38.22
27712;BME280;2377;51.734;8.950;2022-08-03T13:02:15;97933.78;;;33.24;36.88
27712;BME280;2377;51.734;8.950;2022-08-03T13:04:44;97934.97;;;33.27;37.80
27712;BME280;2377;51.734;8.950;2022-08-03T13:07:13;97934.19;;;33.26;37.25
27712;BME280;2377;51.734;8.950;2022-08-03T13:09:43;97929.66;;;33.27;36.75
27712;BME280;2377;51.734;8.950;2022-08-03T13:12:13;97933.13;;;33.31;36.62
27712;BME280;2377;51.734;8.950;2022-08-03T13:14:41;97924.00;;;33.29;35.71
27712;BME280;2377;51.734;8.950;2022-08-03T13:17:08;97927.41;;;33.29;37.30
27712;BME280;2377;51.734;8.950;2022-08-03T13:19:36;97932.78;;;33.36;36.97
27712;BME280;2377;51.734;8.950;2022-08-03T13:22:12;97928.94;;;33.30;37.61
27712;BME280;2377;51.734;8.950;2022-08-03T13:24:40;97928.94;;;33.30;35.64
27712;BME280;2377;51.734;8.950;2022-08-03T13:27:08;97922.84;;;33.26;35.09
27712;BME280;2377;51.734;8.950;2022-08-03T13:29:35;97922.75;;;33.19;35.81
27712;BME280;2377;51.734;8.950;2022-08-03T13:32:04;97925.22;;;33.04;35.38
27712;BME280;2377;51.734;8.950;2022-08-03T13:34:31;97918.25;;;32.96;35.49
27712;BME280;2377;51.734;8.950;2022-08-03T13:36:58;97919.06;;;33.00;36.90
27712;BME280;2377;51.734;8.950;2022-08-03T13:39:27;97921.50;;;33.09;36.95
27712;BME280;2377;51.734;8.950;2022-08-03T13:41:54;97907.97;;;33.18;36.17
27712;BME280;2377;51.734;8.950;2022-08-03T13:44:21;97906.22;;;33.29;36.51
27712;BME280;2377;51.734;8.950;2022-08-03T13:46:48;97914.56;;;33.31;36.42
27712;BME280;2377;51.734;8.950;2022-08-03T13:49:16;97908.53;;;33.34;36.60
27712;BME280;2377;51.734;8.950;2022-08-03T13:51:44;97904.38;;;33.33;37.16
27712;BME280;2377;51.734;8.950;2022-08-03T13:54:11;97906.28;;;33.36;35.30
27712;BME280;2377;51.734;8.950;2022-08-03T13:56:39;97897.97;;;33.38;35.22
27712;BME280;2377;51.734;8.950;2022-08-03T13:59:07;97904.13;;;33.45;35.24
27712;BME280;2377;51.734;8.950;2022-08-03T14:01:35;97902.31;;;33.53;35.51
27712;BME280;2377;51.734;8.950;2022-08-03T14:04:03;97892.09;;;33.52;35.54
27712;BME280;2377;51.734;8.950;2022-08-03T14:06:30;97893.19;;;33.51;35.53
27712;BME280;2377;51.734;8.950;2022-08-03T14:08:57;97894.34;;;33.53;36.70
27712;BME280;2377;51.734;8.950;2022-08-03T14:11:24;97892.78;;;33.48;35.60
27712;BME280;2377;51.734;8.950;2022-08-03T14:13:52;97897.22;;;33.37;36.42
27712;BME280;2377;51.734;8.950;2022-08-03T14:16:19;97900.16;;;33.29;35.46
27712;BME280;2377;51.734;8.950;2022-08-03T14:18:46;97900.09;;;33.25;35.52
27712;BME280;2377;51.734;8.950;2022-08-03T14:21:14;97898.94;;;33.22;35.28
27712;BME280;2377;51.734;8.950;2022-08-03T14:23:41;97889.78;;;33.16;35.84
27712;BME280;2377;51.734;8.950;2022-08-03T14:26:08;97893.19;;;33.17;36.56
27712;BME280;2377;51.734;8.950;2022-08-03T14:28:36;97894.03;;;33.24;36.10
27712;BME280;2377;51.734;8.950;2022-08-03T14:31:05;97895.56;;;33.25;36.21
27712;BME280;2377;51.734;8.950;2022-08-03T14:33:32;97890.94;;;33.19;35.69